sensor_id;sensor_type;location;lat;lon;timestamp;pressure;altitude;pressure_sealevel;temperature;humidity
46782;BME280;32541;46.298;11.506;2023-10-09T00:00:50;90498.03;;;13.19;60.28
46782;BME280;32541;46.298;11.506;2023-10-09T00:03:19;90492.25;;;13.24;59.81
46782;BME280;32541;46.298;11.506;2023-10-09T00:05:49;90489.19;;;13.20;59.46
46782;BME280;32541;46.298;11.506;2023-10-09T00:08:18;90496.91;;;13.22;59.75
46782;BME280;32541;46.298;11.506;2023-10-09T00:10:57;90495.94;;;13.27;59.29
46782;BME280;32541;46.298;11.506;2023-10-09T00:13:25;90497.00;;;13.14;58.89
46782;BME280;32541;46.298;11.506;2023-10-09T00:15:56;90505.56;;;13.09;59.73
46782;BME280;32541;46.298;11.506;2023-10-09T00:18:27;90503.34;;;13.07;59.88
46782;BME280;32541;46.298;11.506;2023-10-09T00:20:56;90496.13;;;13.12;60.18
46782;BME280;32541;46.298;11.506;2023-10-09T00:23:37;90498.94;;;13.04;61.82
46782;BME280;32541;46.298;11.506;2023-10-09T00:26:03;90488.03;;;12.97;61.62
46782;BME280;32541;46.298;11.506;2023-10-09T00:28:41;90494.91;;;13.05;60.70
46782;BME280;32541;46.298;11.506;2023-10-09T00:31:09;90489.00;;;13.09;61.20
46782;BME280;32541;46.298;11.506;2023-10-09T00:33:40;90486.63;;;13.05;61.21
46782;BME280;32541;46.298;11.506;2023-10-09T00:36:07;90480.13;;;13.10;61.41
46782;BME280;32541;46.298;11.506;2023-10-09T00:38:38;90480.13;;;13.10;61.32
46782;BME280;32541;46.298;11.506;2023-10-09T00:41:14;90475.00;;;13.07;61.81
46782;BME280;32541;46.298;11.506;2023-10-09T00:43:45;90469.72;;;13.01;60.84
46782;BME280;32541;46.298;11.506;2023-10-09T00:46:11;90473.16;;;13.09;60.31
46782;BME280;32541;46.298;11.506;2023-10-09T00:48:59;90465.66;;;13.02;62.03
46782;BME280;32541;46.298;11.506;2023-10-09T00:51:28;90467.97;;;12.96;62.48
46782;BME280;32541;46.298;11.506;2023-10-09T00:54:02;90458.53;;;12.99;61.64
46782;BME280;32541;46.298;11.506;2023-10-09T00:56:40;90459.09;;;12.98;61.37
46782;BME280;32541;46.298;11.506;2023-10-09T00:59:08;90466.66;;;12.97;62.31
46782;BME280;32541;46.298;11.506;2023-10-09T01:01:40;90459.53;;;12.94;62.28
46782;BME280;32541;46.298;11.506;2023-10-09T01:04:11;90459.94;;;12.91;61.48
46782;BME280;32541;46.298;11.506;2023-10-09T01:06:44;90456.09;;;13.03;61.68
46782;BME280;32541;46.298;11.506;2023-10-09T01:09:14;90443.00;;;13.04;61.32
46782;BME280;32541;46.298;11.506;2023-10-09T01:11:41;90447.50;;;12.99;62.78
46782;BME280;32541;46.298;11.506;2023-10-09T01:14:33;90450.19;;;12.90;62.99
46782;BME280;32541;46.298;11.506;2023-10-09T01:17:02;90440.41;;;12.79;62.78
46782;BME280;32541;46.298;11.506;2023-10-09T01:19:32;90429.84;;;12.85;62.47
46782;BME280;32541;46.298;11.506;2023-10-09T01:21:59;90433.50;;;12.88;62.38
46782;BME280;32541;46.298;11.506;2023-10-09T01:24:38;90433.75;;;12.82;62.81
46782;BME280;32541;46.298;11.506;2023-10-09T01:27:05;90435.19;;;12.83;62.74
46782;BME280;32541;46.298;11.506;2023-10-09T01:29:36;90433.34;;;12.86;61.07
46782;BME280;32541;46.298;11.506;2023-10-09T01:32:02;90435.03;;;12.81;62.97
46782;BME280;32541;46.298;11.506;2023-10-09T01:34:29;90427.50;;;12.81;63.41
46782;BME280;32541;46.298;11.506;2023-10-09T01:37:07;90432.28;;;12.81;63.19
46782;BME280;32541;46.298;11.506;2023-10-09T01:39:55;90430.81;;;12.80;63.54
46782;BME280;32541;46.298;11.506;2023-10-09T01:42:25;90425.81;;;12.69;63.06
46782;BME280;32541;46.298;11.506;2023-10-09T01:44:53;90429.31;;;12.69;62.99
46782;BME280;32541;46.298;11.506;2023-10-09T01:47:19;90430.53;;;12.76;63.40
46782;BME280;32541;46.298;11.506;2023-10-09T01:49:46;90422.81;;;12.74;63.75
46782;BME280;32541;46.298;11.506;2023-10-09T01:52:15;90433.69;;;12.72;63.60
46782;BME280;32541;46.298;11.506;2023-10-09T01:54:43;90423.47;;;12.65;63.86
46782;BME280;32541;46.298;11.506;2023-10-09T01:57:14;90424.06;;;12.64;63.67
46782;BME280;32541;46.298;11.506;2023-10-09T01:59:48;90431.75;;;12.65;63.72
46782;BME280;32541;46.298;11.506;2023-10-09T02:02:18;90421.59;;;12.68;62.87
46782;BME280;32541;46.298;11.506;2023-10-09T02:05:06;90422.78;;;12.48;65.61
46782;BME280;32541;46.298;11.506;2023-10-09T02:07:35;90417.59;;;12.52;64.72
46782;BME280;32541;46.298;11.506;2023-10-09T02:10:10;90419.22;;;12.55;63.67
46782;BME280;32541;46.298;11.506;2023-10-09T02:13:04;90421.03;;;12.69;62.95
46782;BME280;32541;46.298;11.506;2023-10-09T02:15:36;90422.91;;;12.67;62.45
46782;BME280;32541;46.298;11.506;2023-10-09T02:18:07;90419.28;;;12.64;62.87
46782;BME280;32541;46.298;11.506;2023-10-09T02:20:49;90415.78;;;12.64;63.10
46782;BME280;32541;46.298;11.506;2023-10-09T02:23:38;90419.31;;;12.74;63.40
46782;BME280;32541;46.298;11.506;2023-10-09T02:26:10;90419.22;;;12.55;62.96
46782;BME280;32541;46.298;11.506;2023-10-09T02:28:45;90418.59;;;12.47;63.46
46782;BME280;32541;46.298;11.506;2023-10-09T02:31:18;90415.34;;;12.41;64.70
46782;BME280;32541;46.298;11.506;2023-10-09T02:33:47;90417.44;;;12.33;64.39
46782;BME280;32541;46.298;11.506;2023-10-09T02:36:15;90414.69;;;12.33;63.33
46782;BME280;32541;46.298;11.506;2023-10-09T02:38:41;90404.00;;;12.37;64.10
46782;BME280;32541;46.298;11.506;2023-10-09T02:41:08;90413.25;;;12.32;63.54
46782;BME280;32541;46.298;11.506;2023-10-09T02:43:39;90416.00;;;12.32;64.12
46782;BME280;32541;46.298;11.506;2023-10-09T02:46:15;90419.31;;;12.30;64.42
46782;BME280;32541;46.298;11.506;2023-10-09T02:48:55;90420.88;;;12.23;64.29
46782;BME280;32541;46.298;11.506;2023-10-09T02:51:24;90409.28;;;12.25;64.19
46782;BME280;32541;46.298;11.506;2023-10-09T02:53:53;90413.31;;;12.24;63.77
46782;BME280;32541;46.298;11.506;2023-10-09T02:56:20;90415.34;;;12.23;63.83
46782;BME280;32541;46.298;11.506;2023-10-09T02:59:04;90412.94;;;12.10;64.70
46782;BME280;32541;46.298;11.506;2023-10-09T03:01:34;90412.22;;;12.10;64.64
46782;BME280;32541;46.298;11.506;2023-10-09T03:04:06;90404.69;;;12.10;64.56
46782;BME280;32541;46.298;11.506;2023-10-09T03:06:35;90402.81;;;12.13;63.88
46782;BME280;32541;46.298;11.506;2023-10-09T03:09:11;90411.47;;;12.09;63.53
46782;BME280;32541;46.298;11.506;2023-10-09T03:11:49;90407.03;;;12.14;63.82
46782;BME280;32541;46.298;11.506;2023-10-09T03:14:22;90415.56;;;12.08;64.82
46782;BME280;32541;46.298;11.506;2023-10-09T03:16:54;90410.25;;;12.03;64.06
46782;BME280;32541;46.298;11.506;2023-10-09T03:19:21;90412.31;;;12.02;62.42
46782;BME280;32541;46.298;11.506;2023-10-09T03:21:47;90408.97;;;12.04;63.53
46782;BME280;32541;46.298;11.506;2023-10-09T03:24:12;90413.25;;;11.97;64.39
46782;BME280;32541;46.298;11.506;2023-10-09T03:26:38;90407.19;;;11.99;64.23
46782;BME280;32541;46.298;11.506;2023-10-09T03:29:03;90417.16;;;11.94;64.65
46782;BME280;32541;46.298;11.506;2023-10-09T03:31:36;90416.75;;;11.98;64.55
46782;BME280;32541;46.298;11.506;2023-10-09T03:34:02;90415.03;;;11.85;63.88
46782;BME280;32541;46.298;11.506;2023-10-09T03:36:28;90407.50;;;11.86;65.05
46782;BME280;32541;46.298;11.506;2023-10-09T03:38:56;90413.34;;;11.90;65.33
46782;BME280;32541;46.298;11.506;2023-10-09T03:41:24;90407.91;;;11.82;65.67
46782;BME280;32541;46.298;11.506;2023-10-09T03:43:52;90413.59;;;11.84;64.99
46782;BME280;32541;46.298;11.506;2023-10-09T03:46:17;90407.84;;;11.90;64.55
46782;BME280;32541;46.298;11.506;2023-10-09T03:48:49;90409.22;;;11.81;65.72
46782;BME280;32541;46.298;11.506;2023-10-09T03:51:15;90407.28;;;11.74;65.28
46782;BME280;32541;46.298;11.506;2023-10-09T03:53:47;90404.03;;;12.02;62.07
46782;BME280;32541;46.298;11.506;2023-10-09T03:56:13;90404.09;;;11.95;63.77
46782;BME280;32541;46.298;11.506;2023-10-09T03:58:42;90402.38;;;11.65;66.28
46782;BME280;32541;46.298;11.506;2023-10-09T04:01:09;90394.25;;;11.50;66.44
46782;BME280;32541;46.298;11.506;2023-10-09T04:03:42;90406.09;;;11.43;66.75
46782;BME280;32541;46.298;11.506;2023-10-09T04:06:08;90386.31;;;11.54;66.08
46782;BME280;32541;46.298;11.506;2023-10-09T04:08:36;90396.38;;;11.59;65.98
46782;BME280;32541;46.298;11.506;2023-10-09T04:11:05;90386.97;;;11.62;65.60
46782;BME280;32541;46.298;11.506;2023-10-09T04:13:42;90388.34;;;11.53;66.26
46782;BME280;32541;46.298;11.506;2023-10-09T04:16:26;90388.75;;;11.50;65.94
46782;BME280;32541;46.298;11.506;2023-10-09T04:18:58;90392.56;;;11.54;66.05
46782;BME280;32541;46.298;11.506;2023-10-09T04:21:25;90383.41;;;11.52;65.31
46782;BME280;32541;46.298;11.506;2023-10-09T04:24:06;90389.56;;;11.60;64.04
46782;BME280;32541;46.298;11.506;2023-10-09T04:26:48;90386.56;;;11.48;66.47
46782;BME280;32541;46.298;11.506;2023-10-09T04:29:16;90375.81;;;11.60;65.15
46782;BME280;32541;46.298;11.506;2023-10-09T04:32:03;90377.56;;;11.48;65.40
46782;BME280;32541;46.298;11.506;2023-10-09T04:34:32;90378.69;;;11.45;66.76
46782;BME280;32541;46.298;11.506;2023-10-09T04:37:02;90375.13;;;11.35;67.45
46782;BME280;32541;46.298;11.506;2023-10-09T04:39:40;90375.84;;;11.35;66.27
46782;BME280;32541;46.298;11.506;2023-10-09T04:42:13;90378.03;;;11.37;67.42
46782;BME280;32541;46.298;11.506;2023-10-09T04:44:51;90379.50;;;11.38;66.66
46782;BME280;32541;46.298;11.506;2023-10-09T04:47:32;90374.41;;;11.34;66.31
46782;BME280;32541;46.298;11.506;2023-10-09T04:52:58;90372.13;;;11.40;66.68
46782;BME280;32541;46.298;11.506;2023-10-09T04:55:44;90369.78;;;11.37;65.90
46782;BME280;32541;46.298;11.506;2023-10-09T04:58:20;90364.78;;;11.43;65.66
46782;BME280;32541;46.298;11.506;2023-10-09T05:00:53;90374.16;;;11.40;65.34
46782;BME280;32541;46.298;11.506;2023-10-09T05:03:25;90379.84;;;11.42;64.96
46782;BME280;32541;46.298;11.506;2023-10-09T05:05:53;90374.31;;;11.42;65.59
46782;BME280;32541;46.298;11.506;2023-10-09T05:08:27;90370.44;;;11.45;64.80
46782;BME280;32541;46.298;11.506;2023-10-09T05:10:55;90365.31;;;11.41;66.07
46782;BME280;32541;46.298;11.506;2023-10-09T05:13:30;90371.72;;;11.44;66.40
46782;BME280;32541;46.298;11.506;2023-10-09T05:18:32;90369.75;;;11.20;67.57
46782;BME280;32541;46.298;11.506;2023-10-09T05:21:03;90375.44;;;11.22;67.93
46782;BME280;32541;46.298;11.506;2023-10-09T05:23:51;90371.06;;;11.19;67.54
46782;BME280;32541;46.298;11.506;2023-10-09T05:26:47;90375.97;;;11.20;67.98
46782;BME280;32541;46.298;11.506;2023-10-09T05:29:13;90372.84;;;11.24;67.85
46782;BME280;32541;46.298;11.506;2023-10-09T05:32:04;90376.25;;;11.32;66.46
46782;BME280;32541;46.298;11.506;2023-10-09T05:34:40;90377.47;;;11.38;67.65
46782;BME280;32541;46.298;11.506;2023-10-09T05:37:27;90369.59;;;11.35;66.72
46782;BME280;32541;46.298;11.506;2023-10-09T05:39:59;90373.34;;;11.30;67.66
46782;BME280;32541;46.298;11.506;2023-10-09T05:42:25;90372.28;;;11.25;68.99
46782;BME280;32541;46.298;11.506;2023-10-09T05:47:49;90377.28;;;11.19;67.53
46782;BME280;32541;46.298;11.506;2023-10-09T05:50:30;90370.47;;;11.20;67.94
46782;BME280;32541;46.298;11.506;2023-10-09T05:52:59;90382.72;;;11.27;67.75
46782;BME280;32541;46.298;11.506;2023-10-09T05:55:29;90387.84;;;11.30;67.64
46782;BME280;32541;46.298;11.506;2023-10-09T05:58:13;90386.38;;;11.29;66.98
46782;BME280;32541;46.298;11.506;2023-10-09T06:00:44;90385.00;;;11.38;65.96
46782;BME280;32541;46.298;11.506;2023-10-09T06:03:28;90388.47;;;11.38;66.80
46782;BME280;32541;46.298;11.506;2023-10-09T06:06:16;90391.09;;;11.53;67.34
46782;BME280;32541;46.298;11.506;2023-10-09T06:09:05;90389.31;;;11.48;67.78
46782;BME280;32541;46.298;11.506;2023-10-09T06:11:50;90389.31;;;11.48;67.44
46782;BME280;32541;46.298;11.506;2023-10-09T06:14:20;90397.50;;;11.56;67.24
46782;BME280;32541;46.298;11.506;2023-10-09T06:16:54;90398.63;;;11.53;67.95
46782;BME280;32541;46.298;11.506;2023-10-09T06:19:24;90397.50;;;11.56;68.50
46782;BME280;32541;46.298;11.506;2023-10-09T06:21:58;90403.41;;;11.52;68.21
46782;BME280;32541;46.298;11.506;2023-10-09T06:24:43;90400.09;;;11.54;66.52
46782;BME280;32541;46.298;11.506;2023-10-09T06:27:20;90396.69;;;11.63;65.94
46782;BME280;32541;46.298;11.506;2023-10-09T06:30:09;90396.56;;;11.61;68.19
46782;BME280;32541;46.298;11.506;2023-10-09T06:33:01;90391.94;;;11.63;66.44
46782;BME280;32541;46.298;11.506;2023-10-09T06:35:26;90394.78;;;11.73;65.29
46782;BME280;32541;46.298;11.506;2023-10-09T06:37:59;90394.31;;;11.84;66.36
46782;BME280;32541;46.298;11.506;2023-10-09T06:40:28;90403.38;;;11.77;68.56
46782;BME280;32541;46.298;11.506;2023-10-09T06:43:12;90391.47;;;11.92;67.97
46782;BME280;32541;46.298;11.506;2023-10-09T06:45:45;90398.59;;;11.95;67.00
46782;BME280;32541;46.298;11.506;2023-10-09T06:48:11;90404.94;;;12.05;67.03
46782;BME280;32541;46.298;11.506;2023-10-09T06:50:57;90396.72;;;12.14;65.14
46782;BME280;32541;46.298;11.506;2023-10-09T06:53:33;90400.28;;;12.24;65.42
46782;BME280;32541;46.298;11.506;2023-10-09T06:56:17;90396.06;;;12.67;65.28
46782;BME280;32541;46.298;11.506;2023-10-09T06:59:09;90385.06;;;13.50;64.23
46782;BME280;32541;46.298;11.506;2023-10-09T07:01:48;90390.94;;;14.69;60.43
46782;BME280;32541;46.298;11.506;2023-10-09T07:04:32;90388.91;;;16.02;56.02
46782;BME280;32541;46.298;11.506;2023-10-09T07:06:57;90378.84;;;17.16;52.72
46782;BME280;32541;46.298;11.506;2023-10-09T07:09:24;90386.59;;;18.22;50.94
46782;BME280;32541;46.298;11.506;2023-10-09T07:12:07;90378.06;;;19.06;47.75
46782;BME280;32541;46.298;11.506;2023-10-09T07:14:35;90380.38;;;19.62;45.89
46782;BME280;32541;46.298;11.506;2023-10-09T07:17:02;90368.50;;;19.61;46.61
46782;BME280;32541;46.298;11.506;2023-10-09T07:19:42;90366.94;;;19.45;47.12
46782;BME280;32541;46.298;11.506;2023-10-09T07:22:09;90379.06;;;20.04;46.58
46782;BME280;32541;46.298;11.506;2023-10-09T07:24:50;90371.84;;;20.26;46.55
46782;BME280;32541;46.298;11.506;2023-10-09T07:27:29;90371.50;;;20.47;45.43
46782;BME280;32541;46.298;11.506;2023-10-09T07:30:18;90373.06;;;20.23;45.33
46782;BME280;32541;46.298;11.506;2023-10-09T07:35:46;90357.97;;;20.41;44.21
46782;BME280;32541;46.298;11.506;2023-10-09T07:38:20;90360.63;;;20.53;43.84
46782;BME280;32541;46.298;11.506;2023-10-09T07:40:53;90356.19;;;20.34;44.40
46782;BME280;32541;46.298;11.506;2023-10-09T07:43:41;90356.94;;;20.35;44.17
46782;BME280;32541;46.298;11.506;2023-10-09T07:46:14;90361.13;;;20.63;44.51
46782;BME280;32541;46.298;11.506;2023-10-09T07:49:02;90360.34;;;21.05;44.65
46782;BME280;32541;46.298;11.506;2023-10-09T07:51:38;90355.66;;;21.39;43.87
46782;BME280;32541;46.298;11.506;2023-10-09T07:54:09;90354.78;;;21.66;42.76
46782;BME280;32541;46.298;11.506;2023-10-09T07:56:34;90354.41;;;21.89;41.29
46782;BME280;32541;46.298;11.506;2023-10-09T07:59:18;90354.84;;;21.84;42.01
46782;BME280;32541;46.298;11.506;2023-10-09T08:01:47;90349.81;;;21.65;42.50
46782;BME280;32541;46.298;11.506;2023-10-09T08:07:06;90343.38;;;21.31;43.42
46782;BME280;32541;46.298;11.506;2023-10-09T08:09:33;90343.56;;;21.35;44.10
46782;BME280;32541;46.298;11.506;2023-10-09T08:12:18;90343.63;;;21.21;43.65
46782;BME280;32541;46.298;11.506;2023-10-09T08:15:13;90339.53;;;21.09;44.03
46782;BME280;32541;46.298;11.506;2023-10-09T08:17:48;90341.75;;;20.67;43.86
46782;BME280;32541;46.298;11.506;2023-10-09T08:20:21;90338.56;;;20.88;45.25
46782;BME280;32541;46.298;11.506;2023-10-09T08:22:51;90331.38;;;21.44;44.47
46782;BME280;32541;46.298;11.506;2023-10-09T08:25:18;90332.22;;;21.93;41.60
46782;BME280;32541;46.298;11.506;2023-10-09T08:27:54;90326.59;;;21.62;45.55
46782;BME280;32541;46.298;11.506;2023-10-09T08:30:20;90325.59;;;21.71;42.82
46782;BME280;32541;46.298;11.506;2023-10-09T08:32:51;90312.06;;;22.30;41.40
46782;BME280;32541;46.298;11.506;2023-10-09T08:35:28;90312.00;;;22.79;41.74
46782;BME280;32541;46.298;11.506;2023-10-09T08:37:59;90304.31;;;22.97;40.49
46782;BME280;32541;46.298;11.506;2023-10-09T08:40:40;90305.53;;;22.92;40.92
46782;BME280;32541;46.298;11.506;2023-10-09T08:43:09;90300.28;;;22.34;42.49
46782;BME280;32541;46.298;11.506;2023-10-09T08:45:39;90315.38;;;21.15;44.00
46782;BME280;32541;46.298;11.506;2023-10-09T08:48:09;90311.56;;;20.79;44.44
46782;BME280;32541;46.298;11.506;2023-10-09T08:50:40;90303.75;;;20.19;45.57
46782;BME280;32541;46.298;11.506;2023-10-09T08:53:08;90303.63;;;20.44;45.75
46782;BME280;32541;46.298;11.506;2023-10-09T08:55:36;90310.63;;;20.59;45.80
46782;BME280;32541;46.298;11.506;2023-10-09T08:58:01;90308.31;;;20.69;44.91
46782;BME280;32541;46.298;11.506;2023-10-09T09:00:31;90309.84;;;20.72;45.60
46782;BME280;32541;46.298;11.506;2023-10-09T09:02:58;90315.16;;;20.66;44.61
46782;BME280;32541;46.298;11.506;2023-10-09T09:05:25;90309.06;;;20.56;44.70
46782;BME280;32541;46.298;11.506;2023-10-09T09:07:54;90302.91;;;20.73;45.73
46782;BME280;32541;46.298;11.506;2023-10-09T09:13:14;90303.72;;;20.76;45.72
46782;BME280;32541;46.298;11.506;2023-10-09T09:15:46;90302.91;;;20.73;46.05
46782;BME280;32541;46.298;11.506;2023-10-09T09:18:12;90301.91;;;20.67;47.11
46782;BME280;32541;46.298;11.506;2023-10-09T09:20:43;90292.94;;;20.84;46.06
46782;BME280;32541;46.298;11.506;2023-10-09T09:23:12;90297.28;;;21.02;47.38
46782;BME280;32541;46.298;11.506;2023-10-09T09:25:47;90290.13;;;21.60;47.25
46782;BME280;32541;46.298;11.506;2023-10-09T09:28:14;90279.56;;;22.23;45.22
46782;BME280;32541;46.298;11.506;2023-10-09T09:30:46;90278.66;;;22.87;40.71
46782;BME280;32541;46.298;11.506;2023-10-09T09:33:26;90280.50;;;22.98;39.07
46782;BME280;32541;46.298;11.506;2023-10-09T09:36:03;90282.56;;;23.15;39.46
46782;BME280;32541;46.298;11.506;2023-10-09T09:38:30;90276.63;;;23.07;38.28
46782;BME280;32541;46.298;11.506;2023-10-09T09:41:08;90277.25;;;22.35;40.44
46782;BME280;32541;46.298;11.506;2023-10-09T09:43:34;90276.47;;;21.99;42.45
46782;BME280;32541;46.298;11.506;2023-10-09T09:46:01;90269.94;;;22.28;41.66
46782;BME280;32541;46.298;11.506;2023-10-09T09:48:37;90271.97;;;21.61;43.01
46782;BME280;32541;46.298;11.506;2023-10-09T09:51:04;90263.34;;;22.55;41.74
46782;BME280;32541;46.298;11.506;2023-10-09T09:53:34;90262.00;;;23.29;40.65
46782;BME280;32541;46.298;11.506;2023-10-09T09:56:00;90254.91;;;23.63;39.91
46782;BME280;32541;46.298;11.506;2023-10-09T09:58:28;90247.72;;;24.39;39.71
46782;BME280;32541;46.298;11.506;2023-10-09T10:01:02;90244.41;;;24.88;41.35
46782;BME280;32541;46.298;11.506;2023-10-09T10:03:44;90252.00;;;24.83;38.23
46782;BME280;32541;46.298;11.506;2023-10-09T10:06:12;90237.97;;;23.81;39.49
46782;BME280;32541;46.298;11.506;2023-10-09T10:08:41;90237.38;;;24.45;40.04
46782;BME280;32541;46.298;11.506;2023-10-09T10:11:07;90233.13;;;25.33;36.46
46782;BME280;32541;46.298;11.506;2023-10-09T10:16:11;90241.13;;;23.71;37.97
46782;BME280;32541;46.298;11.506;2023-10-09T10:19:00;90226.19;;;24.06;38.16
46782;BME280;32541;46.298;11.506;2023-10-09T10:21:33;90229.66;;;24.04;38.77
46782;BME280;32541;46.298;11.506;2023-10-09T10:35:19;90214.31;;;24.49;39.23
46782;BME280;32541;46.298;11.506;2023-10-09T10:38:26;90214.06;;;25.31;37.57
46782;BME280;32541;46.298;11.506;2023-10-09T10:43:36;90201.72;;;25.19;34.40
46782;BME280;32541;46.298;11.506;2023-10-09T10:46:21;90195.66;;;25.50;35.34
46782;BME280;32541;46.298;11.506;2023-10-09T10:49:08;90199.84;;;26.01;34.06
46782;BME280;32541;46.298;11.506;2023-10-09T10:51:47;90191.56;;;25.55;34.54
46782;BME280;32541;46.298;11.506;2023-10-09T10:54:23;90183.44;;;25.67;34.36
46782;BME280;32541;46.298;11.506;2023-10-09T10:57:18;90183.03;;;26.30;36.13
46782;BME280;32541;46.298;11.506;2023-10-09T11:00:10;90176.38;;;26.45;34.18
46782;BME280;32541;46.298;11.506;2023-10-09T11:02:59;90166.91;;;26.92;33.83
46782;BME280;32541;46.298;11.506;2023-10-09T11:05:41;90162.03;;;26.65;35.87
46782;BME280;32541;46.298;11.506;2023-10-09T11:08:10;90161.28;;;26.07;35.50
46782;BME280;32541;46.298;11.506;2023-10-09T11:10:36;90159.47;;;26.47;37.17
46782;BME280;32541;46.298;11.506;2023-10-09T11:13:01;90157.66;;;26.05;34.65
46782;BME280;32541;46.298;11.506;2023-10-09T11:15:37;90157.97;;;24.68;37.10
46782;BME280;32541;46.298;11.506;2023-10-09T11:18:09;90152.44;;;25.41;36.05
46782;BME280;32541;46.298;11.506;2023-10-09T11:20:51;90144.09;;;25.46;35.21
46782;BME280;32541;46.298;11.506;2023-10-09T11:23:32;90147.31;;;25.10;35.60
46782;BME280;32541;46.298;11.506;2023-10-09T11:26:02;90142.03;;;25.22;35.36
46782;BME280;32541;46.298;11.506;2023-10-09T11:29:10;90138.72;;;25.54;38.51
46782;BME280;32541;46.298;11.506;2023-10-09T11:31:58;90135.97;;;24.17;35.09
46782;BME280;32541;46.298;11.506;2023-10-09T11:34:25;90126.78;;;24.82;37.89
46782;BME280;32541;46.298;11.506;2023-10-09T11:37:12;90127.66;;;25.12;35.51
46782;BME280;32541;46.298;11.506;2023-10-09T11:39:38;90120.31;;;25.01;34.35
46782;BME280;32541;46.298;11.506;2023-10-09T11:42:18;90119.06;;;24.37;34.66
46782;BME280;32541;46.298;11.506;2023-10-09T11:45:01;90110.22;;;24.47;36.82
46782;BME280;32541;46.298;11.506;2023-10-09T11:47:39;90104.84;;;24.55;39.43
46782;BME280;32541;46.298;11.506;2023-10-09T11:50:19;90102.22;;;24.61;38.65
46782;BME280;32541;46.298;11.506;2023-10-09T11:52:56;90102.41;;;24.67;36.40
46782;BME280;32541;46.298;11.506;2023-10-09T11:55:37;90094.22;;;24.99;40.87
46782;BME280;32541;46.298;11.506;2023-10-09T11:58:03;90090.38;;;25.12;40.14
46782;BME280;32541;46.298;11.506;2023-10-09T12:00:32;90088.88;;;25.34;40.39
46782;BME280;32541;46.298;11.506;2023-10-09T12:03:09;90089.66;;;25.63;37.66
46782;BME280;32541;46.298;11.506;2023-10-09T12:05:35;90076.59;;;25.75;38.76
46782;BME280;32541;46.298;11.506;2023-10-09T12:08:02;90066.06;;;26.04;34.90
46782;BME280;32541;46.298;11.506;2023-10-09T12:10:27;90059.72;;;26.33;30.44
46782;BME280;32541;46.298;11.506;2023-10-09T12:12:55;90057.09;;;26.41;31.13
46782;BME280;32541;46.298;11.506;2023-10-09T12:15:23;90050.03;;;26.72;30.20
46782;BME280;32541;46.298;11.506;2023-10-09T12:17:49;90044.84;;;26.92;28.26
46782;BME280;32541;46.298;11.506;2023-10-09T12:20:15;90053.25;;;26.58;28.93
46782;BME280;32541;46.298;11.506;2023-10-09T12:23:07;90049.06;;;26.29;29.19
46782;BME280;32541;46.298;11.506;2023-10-09T12:25:34;90027.94;;;26.30;29.76
46782;BME280;32541;46.298;11.506;2023-10-09T12:28:02;90027.31;;;26.66;27.19
46782;BME280;32541;46.298;11.506;2023-10-09T12:30:31;90018.09;;;26.31;26.77
46782;BME280;32541;46.298;11.506;2023-10-09T12:32:57;90020.25;;;26.33;27.57
46782;BME280;32541;46.298;11.506;2023-10-09T12:35:26;90011.66;;;26.59;29.54
46782;BME280;32541;46.298;11.506;2023-10-09T12:37:53;90016.09;;;27.01;30.65
46782;BME280;32541;46.298;11.506;2023-10-09T12:40:22;90016.63;;;27.30;29.56
46782;BME280;32541;46.298;11.506;2023-10-09T12:42:54;90018.44;;;27.49;30.85
46782;BME280;32541;46.298;11.506;2023-10-09T12:45:24;90017.56;;;27.78;27.50
46782;BME280;32541;46.298;11.506;2023-10-09T12:47:58;90012.59;;;28.19;25.82
46782;BME280;32541;46.298;11.506;2023-10-09T12:50:37;90012.31;;;28.46;26.36
46782;BME280;32541;46.298;11.506;2023-10-09T12:53:10;90015.53;;;28.73;27.13
46782;BME280;32541;46.298;11.506;2023-10-09T12:55:40;90004.91;;;28.71;25.38
46782;BME280;32541;46.298;11.506;2023-10-09T12:58:10;90007.38;;;28.47;24.52
46782;BME280;32541;46.298;11.506;2023-10-09T13:00:40;90009.00;;;27.74;25.55
46782;BME280;32541;46.298;11.506;2023-10-09T13:03:10;90015.50;;;27.83;25.83
46782;BME280;32541;46.298;11.506;2023-10-09T13:05:48;89990.13;;;27.85;27.20
46782;BME280;32541;46.298;11.506;2023-10-09T13:08:25;90009.97;;;27.13;26.27
46782;BME280;32541;46.298;11.506;2023-10-09T13:11:01;89992.09;;;27.02;27.94
46782;BME280;32541;46.298;11.506;2023-10-09T13:13:29;89989.03;;;27.26;26.50
46782;BME280;32541;46.298;11.506;2023-10-09T13:16:24;89991.16;;;27.64;26.36
46782;BME280;32541;46.298;11.506;2023-10-09T13:18:50;89989.94;;;27.35;26.50
46782;BME280;32541;46.298;11.506;2023-10-09T13:21:24;89987.41;;;27.51;26.28
46782;BME280;32541;46.298;11.506;2023-10-09T13:23:50;89979.22;;;27.67;27.34
46782;BME280;32541;46.298;11.506;2023-10-09T13:26:19;89988.97;;;27.22;26.17
46782;BME280;32541;46.298;11.506;2023-10-09T13:28:56;89986.09;;;27.20;27.07
46782;BME280;32541;46.298;11.506;2023-10-09T13:31:22;89978.38;;;27.58;27.18
46782;BME280;32541;46.298;11.506;2023-10-09T13:33:52;89989.69;;;27.61;26.46
46782;BME280;32541;46.298;11.506;2023-10-09T13:36:23;89984.59;;;27.93;26.18
46782;BME280;32541;46.298;11.506;2023-10-09T13:38:55;89972.44;;;27.84;26.33
46782;BME280;32541;46.298;11.506;2023-10-09T13:41:22;89981.06;;;27.94;25.46
46782;BME280;32541;46.298;11.506;2023-10-09T13:43:51;89979.91;;;27.68;26.10
46782;BME280;32541;46.298;11.506;2023-10-09T13:46:17;89978.53;;;27.31;24.52
46782;BME280;32541;46.298;11.506;2023-10-09T13:48:43;89975.88;;;27.41;26.61
46782;BME280;32541;46.298;11.506;2023-10-09T13:51:11;89989.56;;;27.52;27.04
46782;BME280;32541;46.298;11.506;2023-10-09T13:53:43;89984.66;;;27.55;25.96
46782;BME280;32541;46.298;11.506;2023-10-09T13:56:19;89987.28;;;27.45;25.08